sensor_id;sensor_type;location;lat;lon;timestamp;temperature;humidity
20827;DHT22;10574;52.508;13.236;2023-04-06T00:01:28;2.70;99.90
20827;DHT22;10574;52.508;13.236;2023-04-06T00:03:56;2.70;99.90
20827;DHT22;10574;52.508;13.236;2023-04-06T00:06:23;2.70;99.90
20827;DHT22;10574;52.508;13.236;2023-04-06T00:08:51;2.60;99.90
20827;DHT22;10574;52.508;13.236;2023-04-06T00:11:19;2.60;99.90
20827;DHT22;10574;52.508;13.236;2023-04-06T00:13:46;2.50;99.90
20827;DHT22;10574;52.508;13.236;2023-04-06T00:16:14;2.50;99.90
20827;DHT22;10574;52.508;13.236;2023-04-06T00:18:42;2.50;99.90
20827;DHT22;10574;52.508;13.236;2023-04-06T00:21:11;2.50;99.90
20827;DHT22;10574;52.508;13.236;2023-04-06T00:23:40;2.50;99.90
20827;DHT22;10574;52.508;13.236;2023-04-06T00:26:08;2.50;99.90
20827;DHT22;10574;52.508;13.236;2023-04-06T00:28:37;2.50;99.90
20827;DHT22;10574;52.508;13.236;2023-04-06T00:31:05;2.40;99.90
20827;DHT22;10574;52.508;13.236;2023-04-06T00:33:33;2.40;99.90
20827;DHT22;10574;52.508;13.236;2023-04-06T00:36:01;2.30;99.90
20827;DHT22;10574;52.508;13.236;2023-04-06T00:38:28;2.30;99.90
20827;DHT22;10574;52.508;13.236;2023-04-06T00:40:56;2.30;99.90
20827;DHT22;10574;52.508;13.236;2023-04-06T00:43:24;2.30;99.90
20827;DHT22;10574;52.508;13.236;2023-04-06T00:45:52;2.20;99.90
20827;DHT22;10574;52.508;13.236;2023-04-06T00:48:20;2.20;99.90
20827;DHT22;10574;52.508;13.236;2023-04-06T00:50:47;2.20;99.90
20827;DHT22;10574;52.508;13.236;2023-04-06T00:53:15;2.20;99.90
20827;DHT22;10574;52.508;13.236;2023-04-06T00:55:44;2.10;99.90
20827;DHT22;10574;52.508;13.236;2023-04-06T00:58:12;2.10;99.90
20827;DHT22;10574;52.508;13.236;2023-04-06T01:00:39;2.00;99.90
20827;DHT22;10574;52.508;13.236;2023-04-06T01:03:08;2.00;99.90
20827;DHT22;10574;52.508;13.236;2023-04-06T01:05:36;2.00;99.90
20827;DHT22;10574;52.508;13.236;2023-04-06T01:08:11;1.90;99.90
20827;DHT22;10574;52.508;13.236;2023-04-06T01:10:35;1.90;99.90
20827;DHT22;10574;52.508;13.236;2023-04-06T01:13:03;1.90;99.90
20827;DHT22;10574;52.508;13.236;2023-04-06T01:15:32;1.80;99.90
20827;DHT22;10574;52.508;13.236;2023-04-06T01:18:01;1.80;99.90
20827;DHT22;10574;52.508;13.236;2023-04-06T01:20:28;1.80;99.90
20827;DHT22;10574;52.508;13.236;2023-04-06T01:22:57;1.80;99.90
20827;DHT22;10574;52.508;13.236;2023-04-06T01:25:24;1.80;99.90
20827;DHT22;10574;52.508;13.236;2023-04-06T01:27:52;1.70;99.90
20827;DHT22;10574;52.508;13.236;2023-04-06T01:30:20;1.70;99.90
20827;DHT22;10574;52.508;13.236;2023-04-06T01:32:47;1.60;99.90
20827;DHT22;10574;52.508;13.236;2023-04-06T01:35:15;1.60;99.90
20827;DHT22;10574;52.508;13.236;2023-04-06T01:37:43;1.60;99.90
20827;DHT22;10574;52.508;13.236;2023-04-06T01:40:11;1.50;99.90
20827;DHT22;10574;52.508;13.236;2023-04-06T01:42:40;1.50;99.90
20827;DHT22;10574;52.508;13.236;2023-04-06T01:45:09;1.50;99.90
20827;DHT22;10574;52.508;13.236;2023-04-06T01:47:37;1.50;99.90
20827;DHT22;10574;52.508;13.236;2023-04-06T01:50:05;1.50;99.90
20827;DHT22;10574;52.508;13.236;2023-04-06T01:52:33;1.50;99.90
20827;DHT22;10574;52.508;13.236;2023-04-06T01:55:01;1.40;99.90
20827;DHT22;10574;52.508;13.236;2023-04-06T01:57:28;1.40;99.90
20827;DHT22;10574;52.508;13.236;2023-04-06T01:59:56;1.40;99.90
20827;DHT22;10574;52.508;13.236;2023-04-06T02:02:24;1.40;99.90
20827;DHT22;10574;52.508;13.236;2023-04-06T02:04:52;1.40;99.90
20827;DHT22;10574;52.508;13.236;2023-04-06T02:07:19;1.40;99.90
20827;DHT22;10574;52.508;13.236;2023-04-06T02:09:47;1.30;99.90
20827;DHT22;10574;52.508;13.236;2023-04-06T02:12:15;1.30;99.90
20827;DHT22;10574;52.508;13.236;2023-04-06T02:14:43;1.30;99.90
20827;DHT22;10574;52.508;13.236;2023-04-06T02:17:10;1.30;99.90
20827;DHT22;10574;52.508;13.236;2023-04-06T02:19:38;1.20;99.90
20827;DHT22;10574;52.508;13.236;2023-04-06T02:22:06;1.20;99.90
20827;DHT22;10574;52.508;13.236;2023-04-06T02:24:33;1.20;99.90
20827;DHT22;10574;52.508;13.236;2023-04-06T02:27:02;1.10;99.90
20827;DHT22;10574;52.508;13.236;2023-04-06T02:29:29;1.10;99.90
20827;DHT22;10574;52.508;13.236;2023-04-06T02:31:57;1.10;99.90
20827;DHT22;10574;52.508;13.236;2023-04-06T02:34:25;1.10;99.90
20827;DHT22;10574;52.508;13.236;2023-04-06T02:36:52;1.00;99.90
20827;DHT22;10574;52.508;13.236;2023-04-06T02:39:20;1.10;99.90
20827;DHT22;10574;52.508;13.236;2023-04-06T02:41:48;1.10;99.90
20827;DHT22;10574;52.508;13.236;2023-04-06T02:44:16;1.00;99.90
20827;DHT22;10574;52.508;13.236;2023-04-06T02:46:44;1.00;99.90
20827;DHT22;10574;52.508;13.236;2023-04-06T02:49:11;1.00;99.90
20827;DHT22;10574;52.508;13.236;2023-04-06T02:51:39;1.00;99.90
20827;DHT22;10574;52.508;13.236;2023-04-06T02:54:07;1.00;99.90
20827;DHT22;10574;52.508;13.236;2023-04-06T02:56:34;1.00;99.90
20827;DHT22;10574;52.508;13.236;2023-04-06T02:59:02;0.90;99.90
20827;DHT22;10574;52.508;13.236;2023-04-06T03:01:30;0.90;99.90
20827;DHT22;10574;52.508;13.236;2023-04-06T03:03:57;0.90;99.90
20827;DHT22;10574;52.508;13.236;2023-04-06T03:06:25;0.90;99.90
20827;DHT22;10574;52.508;13.236;2023-04-06T03:08:53;0.90;99.90
20827;DHT22;10574;52.508;13.236;2023-04-06T03:11:21;0.90;99.90
20827;DHT22;10574;52.508;13.236;2023-04-06T03:13:48;0.80;99.90
20827;DHT22;10574;52.508;13.236;2023-04-06T03:16:17;0.80;99.90
20827;DHT22;10574;52.508;13.236;2023-04-06T03:18:44;0.80;99.90
20827;DHT22;10574;52.508;13.236;2023-04-06T03:21:13;0.70;99.90
20827;DHT22;10574;52.508;13.236;2023-04-06T03:23:46;0.70;99.90
20827;DHT22;10574;52.508;13.236;2023-04-06T03:26:15;0.60;99.90
20827;DHT22;10574;52.508;13.236;2023-04-06T03:28:43;0.60;99.90
20827;DHT22;10574;52.508;13.236;2023-04-06T03:31:10;0.50;99.90
20827;DHT22;10574;52.508;13.236;2023-04-06T03:33:38;0.40;99.90
20827;DHT22;10574;52.508;13.236;2023-04-06T03:36:06;0.40;99.90
20827;DHT22;10574;52.508;13.236;2023-04-06T03:38:34;0.40;99.90
20827;DHT22;10574;52.508;13.236;2023-04-06T03:41:02;0.40;99.90
20827;DHT22;10574;52.508;13.236;2023-04-06T03:43:29;0.40;99.90
20827;DHT22;10574;52.508;13.236;2023-04-06T03:45:57;0.40;99.90
20827;DHT22;10574;52.508;13.236;2023-04-06T03:48:25;0.40;99.90
20827;DHT22;10574;52.508;13.236;2023-04-06T03:50:52;0.40;99.90
20827;DHT22;10574;52.508;13.236;2023-04-06T03:53:20;0.40;99.90
20827;DHT22;10574;52.508;13.236;2023-04-06T03:55:48;0.40;99.90
20827;DHT22;10574;52.508;13.236;2023-04-06T03:58:16;0.40;99.90
20827;DHT22;10574;52.508;13.236;2023-04-06T04:00:43;0.30;99.90
20827;DHT22;10574;52.508;13.236;2023-04-06T04:03:11;0.30;99.90
20827;DHT22;10574;52.508;13.236;2023-04-06T04:05:39;0.30;99.90
20827;DHT22;10574;52.508;13.236;2023-04-06T04:08:07;0.40;99.90
20827;DHT22;10574;52.508;13.236;2023-04-06T04:10:34;0.30;99.90
20827;DHT22;10574;52.508;13.236;2023-04-06T04:13:02;0.30;99.90
20827;DHT22;10574;52.508;13.236;2023-04-06T04:15:30;0.40;99.90
20827;DHT22;10574;52.508;13.236;2023-04-06T04:17:58;0.30;99.90
20827;DHT22;10574;52.508;13.236;2023-04-06T04:20:25;0.30;99.90
20827;DHT22;10574;52.508;13.236;2023-04-06T04:22:54;0.30;99.90
20827;DHT22;10574;52.508;13.236;2023-04-06T04:25:23;0.30;99.90
20827;DHT22;10574;52.508;13.236;2023-04-06T04:27:51;0.30;99.90
20827;DHT22;10574;52.508;13.236;2023-04-06T04:30:19;0.30;99.90
20827;DHT22;10574;52.508;13.236;2023-04-06T04:32:46;0.30;99.90
20827;DHT22;10574;52.508;13.236;2023-04-06T04:35:14;0.30;99.90
20827;DHT22;10574;52.508;13.236;2023-04-06T04:37:42;0.40;99.90
20827;DHT22;10574;52.508;13.236;2023-04-06T04:40:10;0.40;99.90
20827;DHT22;10574;52.508;13.236;2023-04-06T04:42:38;0.40;99.90
20827;DHT22;10574;52.508;13.236;2023-04-06T04:45:06;0.40;99.90
20827;DHT22;10574;52.508;13.236;2023-04-06T04:47:34;0.40;99.90
20827;DHT22;10574;52.508;13.236;2023-04-06T04:50:01;0.40;99.90
20827;DHT22;10574;52.508;13.236;2023-04-06T04:52:29;0.50;99.90
20827;DHT22;10574;52.508;13.236;2023-04-06T04:54:57;0.50;99.90
20827;DHT22;10574;52.508;13.236;2023-04-06T04:57:25;0.50;99.90
20827;DHT22;10574;52.508;13.236;2023-04-06T04:59:52;0.50;99.90
20827;DHT22;10574;52.508;13.236;2023-04-06T05:02:20;0.60;99.90
20827;DHT22;10574;52.508;13.236;2023-04-06T05:04:48;0.60;99.90
20827;DHT22;10574;52.508;13.236;2023-04-06T05:07:15;0.70;99.90
20827;DHT22;10574;52.508;13.236;2023-04-06T05:09:45;1.00;99.90
20827;DHT22;10574;52.508;13.236;2023-04-06T05:12:12;1.30;99.90
20827;DHT22;10574;52.508;13.236;2023-04-06T05:14:40;1.60;99.90
20827;DHT22;10574;52.508;13.236;2023-04-06T05:17:08;2.00;99.90
20827;DHT22;10574;52.508;13.236;2023-04-06T05:19:36;2.20;99.90
20827;DHT22;10574;52.508;13.236;2023-04-06T05:22:04;2.40;99.90
20827;DHT22;10574;52.508;13.236;2023-04-06T05:24:32;2.50;99.90
20827;DHT22;10574;52.508;13.236;2023-04-06T05:26:59;2.50;99.90
20827;DHT22;10574;52.508;13.236;2023-04-06T05:29:27;2.60;99.90
20827;DHT22;10574;52.508;13.236;2023-04-06T05:31:55;2.90;99.90
20827;DHT22;10574;52.508;13.236;2023-04-06T05:34:23;3.60;99.90
20827;DHT22;10574;52.508;13.236;2023-04-06T05:36:50;4.30;99.90
20827;DHT22;10574;52.508;13.236;2023-04-06T05:39:18;5.00;99.90
20827;DHT22;10574;52.508;13.236;2023-04-06T05:41:46;6.10;99.90
20827;DHT22;10574;52.508;13.236;2023-04-06T05:44:14;6.40;99.90
20827;DHT22;10574;52.508;13.236;2023-04-06T05:46:42;6.60;99.90
20827;DHT22;10574;52.508;13.236;2023-04-06T05:49:10;6.80;99.90
20827;DHT22;10574;52.508;13.236;2023-04-06T05:51:37;6.90;99.90
20827;DHT22;10574;52.508;13.236;2023-04-06T05:54:05;6.90;99.90
20827;DHT22;10574;52.508;13.236;2023-04-06T05:56:33;6.50;99.90
20827;DHT22;10574;52.508;13.236;2023-04-06T05:59:00;6.20;99.90
20827;DHT22;10574;52.508;13.236;2023-04-06T06:01:28;6.20;99.90
20827;DHT22;10574;52.508;13.236;2023-04-06T06:03:56;6.20;99.90
20827;DHT22;10574;52.508;13.236;2023-04-06T06:06:23;6.20;99.90
20827;DHT22;10574;52.508;13.236;2023-04-06T06:08:51;6.00;99.90
20827;DHT22;10574;52.508;13.236;2023-04-06T06:11:19;6.40;99.90
20827;DHT22;10574;52.508;13.236;2023-04-06T06:13:47;6.80;99.90
20827;DHT22;10574;52.508;13.236;2023-04-06T06:16:15;6.90;99.90
20827;DHT22;10574;52.508;13.236;2023-04-06T06:18:42;6.60;99.90
20827;DHT22;10574;52.508;13.236;2023-04-06T06:21:10;6.30;99.90
20827;DHT22;10574;52.508;13.236;2023-04-06T06:23:42;6.80;99.90
20827;DHT22;10574;52.508;13.236;2023-04-06T06:26:10;6.80;99.90
20827;DHT22;10574;52.508;13.236;2023-04-06T06:28:38;6.80;99.90
20827;DHT22;10574;52.508;13.236;2023-04-06T06:31:06;6.80;99.90
20827;DHT22;10574;52.508;13.236;2023-04-06T06:33:33;6.90;99.90
20827;DHT22;10574;52.508;13.236;2023-04-06T06:36:01;7.30;99.90
20827;DHT22;10574;52.508;13.236;2023-04-06T06:38:29;7.70;99.90
20827;DHT22;10574;52.508;13.236;2023-04-06T06:40:57;8.10;99.90
20827;DHT22;10574;52.508;13.236;2023-04-06T06:43:24;8.50;99.90
20827;DHT22;10574;52.508;13.236;2023-04-06T06:45:52;9.00;99.90
20827;DHT22;10574;52.508;13.236;2023-04-06T06:48:20;9.50;99.90
20827;DHT22;10574;52.508;13.236;2023-04-06T06:50:48;10.10;99.90
20827;DHT22;10574;52.508;13.236;2023-04-06T06:53:16;10.80;99.90
20827;DHT22;10574;52.508;13.236;2023-04-06T06:55:43;11.60;99.90
20827;DHT22;10574;52.508;13.236;2023-04-06T06:58:11;11.20;99.90
20827;DHT22;10574;52.508;13.236;2023-04-06T07:00:39;11.00;99.90
20827;DHT22;10574;52.508;13.236;2023-04-06T07:03:07;11.10;99.90
20827;DHT22;10574;52.508;13.236;2023-04-06T07:05:34;10.20;99.90
20827;DHT22;10574;52.508;13.236;2023-04-06T07:08:02;10.00;99.90
20827;DHT22;10574;52.508;13.236;2023-04-06T07:10:30;9.90;99.90
20827;DHT22;10574;52.508;13.236;2023-04-06T07:12:58;10.00;99.90
20827;DHT22;10574;52.508;13.236;2023-04-06T07:15:25;9.80;99.90
20827;DHT22;10574;52.508;13.236;2023-04-06T07:17:53;9.50;99.90
20827;DHT22;10574;52.508;13.236;2023-04-06T07:20:21;9.40;99.90
20827;DHT22;10574;52.508;13.236;2023-04-06T07:22:49;9.60;99.90
20827;DHT22;10574;52.508;13.236;2023-04-06T07:25:16;9.90;99.90
20827;DHT22;10574;52.508;13.236;2023-04-06T07:27:44;10.10;99.90
20827;DHT22;10574;52.508;13.236;2023-04-06T07:30:12;10.20;99.90
20827;DHT22;10574;52.508;13.236;2023-04-06T07:32:40;10.00;99.90
20827;DHT22;10574;52.508;13.236;2023-04-06T07:35:08;9.80;99.90
20827;DHT22;10574;52.508;13.236;2023-04-06T07:37:35;9.50;99.90
20827;DHT22;10574;52.508;13.236;2023-04-06T07:40:03;9.10;99.90
20827;DHT22;10574;52.508;13.236;2023-04-06T07:42:31;9.00;99.90
20827;DHT22;10574;52.508;13.236;2023-04-06T07:44:59;9.10;99.90
20827;DHT22;10574;52.508;13.236;2023-04-06T07:47:32;8.90;99.90
20827;DHT22;10574;52.508;13.236;2023-04-06T07:49:56;8.70;99.90
20827;DHT22;10574;52.508;13.236;2023-04-06T07:52:24;9.20;99.90
20827;DHT22;10574;52.508;13.236;2023-04-06T07:54:51;9.40;99.90
20827;DHT22;10574;52.508;13.236;2023-04-06T07:57:19;9.10;99.90
20827;DHT22;10574;52.508;13.236;2023-04-06T07:59:47;9.40;99.90
20827;DHT22;10574;52.508;13.236;2023-04-06T08:02:15;9.80;99.90
20827;DHT22;10574;52.508;13.236;2023-04-06T08:04:43;10.20;99.90
20827;DHT22;10574;52.508;13.236;2023-04-06T08:07:11;10.40;98.40
20827;DHT22;10574;52.508;13.236;2023-04-06T08:09:39;9.70;98.60
20827;DHT22;10574;52.508;13.236;2023-04-06T08:12:07;9.80;99.30
20827;DHT22;10574;52.508;13.236;2023-04-06T08:14:34;10.00;99.90
20827;DHT22;10574;52.508;13.236;2023-04-06T08:17:02;10.30;99.10
20827;DHT22;10574;52.508;13.236;2023-04-06T08:19:30;10.80;96.70
20827;DHT22;10574;52.508;13.236;2023-04-06T08:21:57;11.10;95.50
20827;DHT22;10574;52.508;13.236;2023-04-06T08:24:25;10.70;95.00
20827;DHT22;10574;52.508;13.236;2023-04-06T08:26:53;10.70;94.70
20827;DHT22;10574;52.508;13.236;2023-04-06T08:29:21;10.30;95.50
20827;DHT22;10574;52.508;13.236;2023-04-06T08:31:48;9.90;95.70
20827;DHT22;10574;52.508;13.236;2023-04-06T08:34:16;9.90;94.30
20827;DHT22;10574;52.508;13.236;2023-04-06T08:36:44;9.80;94.30
20827;DHT22;10574;52.508;13.236;2023-04-06T08:39:12;10.00;95.00
20827;DHT22;10574;52.508;13.236;2023-04-06T08:41:41;10.50;93.10
20827;DHT22;10574;52.508;13.236;2023-04-06T08:44:10;10.60;95.10
20827;DHT22;10574;52.508;13.236;2023-04-06T08:46:38;10.80;93.10
20827;DHT22;10574;52.508;13.236;2023-04-06T08:49:06;10.90;92.70
20827;DHT22;10574;52.508;13.236;2023-04-06T08:51:36;10.90;93.30
20827;DHT22;10574;52.508;13.236;2023-04-06T08:54:05;11.00;92.50
20827;DHT22;10574;52.508;13.236;2023-04-06T08:56:36;10.50;92.80
20827;DHT22;10574;52.508;13.236;2023-04-06T08:59:03;10.20;93.30
20827;DHT22;10574;52.508;13.236;2023-04-06T09:01:31;10.10;92.90
20827;DHT22;10574;52.508;13.236;2023-04-06T09:04:01;10.00;93.80
20827;DHT22;10574;52.508;13.236;2023-04-06T09:06:31;10.30;92.10
20827;DHT22;10574;52.508;13.236;2023-04-06T09:08:59;10.40;91.50
20827;DHT22;10574;52.508;13.236;2023-04-06T09:11:27;10.40;91.50
20827;DHT22;10574;52.508;13.236;2023-04-06T09:13:55;10.10;89.60
20827;DHT22;10574;52.508;13.236;2023-04-06T09:16:24;10.00;90.40
20827;DHT22;10574;52.508;13.236;2023-04-06T09:18:52;10.20;92.30
20827;DHT22;10574;52.508;13.236;2023-04-06T09:21:20;10.30;91.60
20827;DHT22;10574;52.508;13.236;2023-04-06T09:23:57;10.40;91.40
20827;DHT22;10574;52.508;13.236;2023-04-06T09:26:17;10.40;89.70
20827;DHT22;10574;52.508;13.236;2023-04-06T09:28:51;10.40;87.60
20827;DHT22;10574;52.508;13.236;2023-04-06T09:31:29;10.20;90.00
20827;DHT22;10574;52.508;13.236;2023-04-06T09:34:00;10.80;90.50
20827;DHT22;10574;52.508;13.236;2023-04-06T09:36:32;11.50;90.30
20827;DHT22;10574;52.508;13.236;2023-04-06T09:39:02;11.60;85.10
20827;DHT22;10574;52.508;13.236;2023-04-06T09:41:31;11.00;87.70
20827;DHT22;10574;52.508;13.236;2023-04-06T09:44:04;10.70;85.30
20827;DHT22;10574;52.508;13.236;2023-04-06T09:46:39;11.00;87.00
20827;DHT22;10574;52.508;13.236;2023-04-06T09:49:04;11.00;87.00
20827;DHT22;10574;52.508;13.236;2023-04-06T09:51:37;11.20;83.90
20827;DHT22;10574;52.508;13.236;2023-04-06T09:54:05;11.50;86.20
20827;DHT22;10574;52.508;13.236;2023-04-06T09:56:58;12.10;86.70
20827;DHT22;10574;52.508;13.236;2023-04-06T09:59:58;12.50;84.00
20827;DHT22;10574;52.508;13.236;2023-04-06T10:05:05;11.60;82.30
20827;DHT22;10574;52.508;13.236;2023-04-06T10:07:30;11.70;84.50
20827;DHT22;10574;52.508;13.236;2023-04-06T10:09:59;11.70;85.60
20827;DHT22;10574;52.508;13.236;2023-04-06T10:12:27;11.80;80.50
20827;DHT22;10574;52.508;13.236;2023-04-06T10:14:56;11.70;75.80
20827;DHT22;10574;52.508;13.236;2023-04-06T10:17:24;11.70;75.40
20827;DHT22;10574;52.508;13.236;2023-04-06T10:20:01;11.30;79.00
20827;DHT22;10574;52.508;13.236;2023-04-06T10:22:55;11.30;80.70
20827;DHT22;10574;52.508;13.236;2023-04-06T10:25:16;11.70;75.60
20827;DHT22;10574;52.508;13.236;2023-04-06T10:27:44;11.80;78.30
20827;DHT22;10574;52.508;13.236;2023-04-06T10:30:15;12.00;76.00
20827;DHT22;10574;52.508;13.236;2023-04-06T10:32:43;12.10;76.40
20827;DHT22;10574;52.508;13.236;2023-04-06T10:35:12;12.30;76.00
20827;DHT22;10574;52.508;13.236;2023-04-06T10:38:02;12.30;77.30
20827;DHT22;10574;52.508;13.236;2023-04-06T10:40:29;12.20;75.40
20827;DHT22;10574;52.508;13.236;2023-04-06T10:45:39;12.10;75.00
20827;DHT22;10574;52.508;13.236;2023-04-06T10:48:18;11.90;74.30
20827;DHT22;10574;52.508;13.236;2023-04-06T10:50:48;11.90;71.00
20827;DHT22;10574;52.508;13.236;2023-04-06T10:53:24;11.40;70.90
20827;DHT22;10574;52.508;13.236;2023-04-06T10:55:58;11.50;73.10
20827;DHT22;10574;52.508;13.236;2023-04-06T10:58:26;11.60;69.40
20827;DHT22;10574;52.508;13.236;2023-04-06T11:00:55;11.80;74.40
20827;DHT22;10574;52.508;13.236;2023-04-06T11:03:22;12.10;76.40
20827;DHT22;10574;52.508;13.236;2023-04-06T11:05:51;12.10;73.20
20827;DHT22;10574;52.508;13.236;2023-04-06T11:08:26;11.70;71.70
20827;DHT22;10574;52.508;13.236;2023-04-06T11:11:11;11.90;75.40
20827;DHT22;10574;52.508;13.236;2023-04-06T11:13:52;12.00;71.60
20827;DHT22;10574;52.508;13.236;2023-04-06T11:16:24;11.90;71.00
20827;DHT22;10574;52.508;13.236;2023-04-06T11:18:57;11.90;68.10
20827;DHT22;10574;52.508;13.236;2023-04-06T11:21:39;12.10;68.90
20827;DHT22;10574;52.508;13.236;2023-04-06T11:24:12;12.10;68.30
20827;DHT22;10574;52.508;13.236;2023-04-06T11:26:42;11.80;66.80
20827;DHT22;10574;52.508;13.236;2023-04-06T11:29:12;11.80;66.90
20827;DHT22;10574;52.508;13.236;2023-04-06T11:31:41;11.70;66.90
20827;DHT22;10574;52.508;13.236;2023-04-06T11:34:21;11.60;67.30
20827;DHT22;10574;52.508;13.236;2023-04-06T11:36:46;11.90;68.20
20827;DHT22;10574;52.508;13.236;2023-04-06T11:39:21;12.30;66.70
20827;DHT22;10574;52.508;13.236;2023-04-06T11:41:48;12.20;65.90
20827;DHT22;10574;52.508;13.236;2023-04-06T11:44:27;11.90;62.30
20827;DHT22;10574;52.508;13.236;2023-04-06T11:46:56;11.70;64.30
20827;DHT22;10574;52.508;13.236;2023-04-06T11:49:28;11.90;65.20
20827;DHT22;10574;52.508;13.236;2023-04-06T11:51:57;12.50;65.00
20827;DHT22;10574;52.508;13.236;2023-04-06T11:54:35;12.70;64.80
20827;DHT22;10574;52.508;13.236;2023-04-06T11:57:04;12.30;66.00
20827;DHT22;10574;52.508;13.236;2023-04-06T11:59:33;12.30;67.60
20827;DHT22;10574;52.508;13.236;2023-04-06T12:02:05;11.80;66.50
20827;DHT22;10574;52.508;13.236;2023-04-06T12:04:32;11.80;65.10
20827;DHT22;10574;52.508;13.236;2023-04-06T12:07:01;11.80;65.70
20827;DHT22;10574;52.508;13.236;2023-04-06T12:09:29;11.80;66.50
20827;DHT22;10574;52.508;13.236;2023-04-06T12:11:57;11.40;64.20
20827;DHT22;10574;52.508;13.236;2023-04-06T12:14:25;11.30;64.90
20827;DHT22;10574;52.508;13.236;2023-04-06T12:16:52;11.70;66.10
20827;DHT22;10574;52.508;13.236;2023-04-06T12:19:20;11.80;65.60
20827;DHT22;10574;52.508;13.236;2023-04-06T12:21:50;12.40;65.50
20827;DHT22;10574;52.508;13.236;2023-04-06T12:24:18;12.20;65.20
20827;DHT22;10574;52.508;13.236;2023-04-06T12:26:46;12.30;62.30
20827;DHT22;10574;52.508;13.236;2023-04-06T12:29:14;12.10;62.30
20827;DHT22;10574;52.508;13.236;2023-04-06T12:31:41;12.20;65.90
20827;DHT22;10574;52.508;13.236;2023-04-06T12:34:11;12.30;66.00
20827;DHT22;10574;52.508;13.236;2023-04-06T12:36:38;12.40;66.00
20827;DHT22;10574;52.508;13.236;2023-04-06T12:39:06;12.20;64.40
20827;DHT22;10574;52.508;13.236;2023-04-06T12:41:34;12.10;64.80
20827;DHT22;10574;52.508;13.236;2023-04-06T12:44:02;11.80;64.80
20827;DHT22;10574;52.508;13.236;2023-04-06T12:46:30;11.80;65.20
20827;DHT22;10574;52.508;13.236;2023-04-06T12:48:57;12.10;65.80
20827;DHT22;10574;52.508;13.236;2023-04-06T12:51:27;12.10;65.90
20827;DHT22;10574;52.508;13.236;2023-04-06T12:53:55;12.10;65.50
20827;DHT22;10574;52.508;13.236;2023-04-06T12:56:22;12.00;64.20
20827;DHT22;10574;52.508;13.236;2023-04-06T12:58:51;12.00;66.90
20827;DHT22;10574;52.508;13.236;2023-04-06T13:01:19;12.40;66.50
20827;DHT22;10574;52.508;13.236;2023-04-06T13:03:47;12.00;65.50
20827;DHT22;10574;52.508;13.236;2023-04-06T13:06:15;12.30;67.00
20827;DHT22;10574;52.508;13.236;2023-04-06T13:08:43;12.60;64.60
20827;DHT22;10574;52.508;13.236;2023-04-06T13:11:11;12.70;66.70
20827;DHT22;10574;52.508;13.236;2023-04-06T13:13:38;12.90;64.30
20827;DHT22;10574;52.508;13.236;2023-04-06T13:16:08;12.60;62.20
20827;DHT22;10574;52.508;13.236;2023-04-06T13:18:36;12.50;65.90
20827;DHT22;10574;52.508;13.236;2023-04-06T13:21:06;12.40;63.90
20827;DHT22;10574;52.508;13.236;2023-04-06T13:23:34;12.70;67.20
20827;DHT22;10574;52.508;13.236;2023-04-06T13:26:05;12.80;65.10
20827;DHT22;10574;52.508;13.236;2023-04-06T13:28:34;12.80;64.80
20827;DHT22;10574;52.508;13.236;2023-04-06T13:31:04;12.90;63.60
20827;DHT22;10574;52.508;13.236;2023-04-06T13:33:32;12.80;64.80
20827;DHT22;10574;52.508;13.236;2023-04-06T13:36:00;12.70;64.40
20827;DHT22;10574;52.508;13.236;2023-04-06T13:38:29;12.60;64.20
20827;DHT22;10574;52.508;13.236;2023-04-06T13:40:57;12.60;64.50
20827;DHT22;10574;52.508;13.236;2023-04-06T13:43:25;12.50;64.30
20827;DHT22;10574;52.508;13.236;2023-04-06T13:45:54;12.10;65.20
20827;DHT22;10574;52.508;13.236;2023-04-06T13:48:24;11.80;66.60
20827;DHT22;10574;52.508;13.236;2023-04-06T13:50:52;11.90;66.70
20827;DHT22;10574;52.508;13.236;2023-04-06T13:53:20;11.70;65.20
20827;DHT22;10574;52.508;13.236;2023-04-06T13:55:55;11.50;64.90
20827;DHT22;10574;52.508;13.236;2023-04-06T13:58:23;11.40;66.70
20827;DHT22;10574;52.508;13.236;2023-04-06T14:00:50;11.60;65.50
20827;DHT22;10574;52.508;13.236;2023-04-06T14:03:19;11.60;65.10
20827;DHT22;10574;52.508;13.236;2023-04-06T14:05:47;11.80;68.40
20827;DHT22;10574;52.508;13.236;2023-04-06T14:08:15;12.00;65.80
20827;DHT22;10574;52.508;13.236;2023-04-06T14:10:42;12.10;69.60
20827;DHT22;10574;52.508;13.236;2023-04-06T14:13:10;12.50;69.50
20827;DHT22;10574;52.508;13.236;2023-04-06T14:15:38;12.40;67.60
20827;DHT22;10574;52.508;13.236;2023-04-06T14:18:07;12.70;67.00
20827;DHT22;10574;52.508;13.236;2023-04-06T14:20:35;12.50;67.50
20827;DHT22;10574;52.508;13.236;2023-04-06T14:23:03;12.20;65.70
20827;DHT22;10574;52.508;13.236;2023-04-06T14:25:31;12.10;69.30
20827;DHT22;10574;52.508;13.236;2023-04-06T14:28:01;12.20;68.10
20827;DHT22;10574;52.508;13.236;2023-04-06T14:30:30;12.40;67.10
20827;DHT22;10574;52.508;13.236;2023-04-06T14:32:58;12.70;68.40
20827;DHT22;10574;52.508;13.236;2023-04-06T14:35:26;12.80;65.60
20827;DHT22;10574;52.508;13.236;2023-04-06T14:37:55;12.70;64.20
20827;DHT22;10574;52.508;13.236;2023-04-06T14:40:25;12.80;65.60
20827;DHT22;10574;52.508;13.236;2023-04-06T14:42:52;12.80;67.40
20827;DHT22;10574;52.508;13.236;2023-04-06T14:45:22;12.90;67.90
20827;DHT22;10574;52.508;13.236;2023-04-06T14:47:49;13.10;67.10
20827;DHT22;10574;52.508;13.236;2023-04-06T14:50:17;12.50;66.10
20827;DHT22;10574;52.508;13.236;2023-04-06T14:52:45;12.20;65.60
20827;DHT22;10574;52.508;13.236;2023-04-06T14:55:13;12.30;65.20
20827;DHT22;10574;52.508;13.236;2023-04-06T14:57:41;12.30;67.40
20827;DHT22;10574;52.508;13.236;2023-04-06T15:00:09;12.50;69.10
20827;DHT22;10574;52.508;13.236;2023-04-06T15:02:37;12.40;67.70
20827;DHT22;10574;52.508;13.236;2023-04-06T15:05:06;11.90;68.60
20827;DHT22;10574;52.508;13.236;2023-04-06T15:07:34;11.70;68.30
20827;DHT22;10574;52.508;13.236;2023-04-06T15:10:02;12.00;69.10
20827;DHT22;10574;52.508;13.236;2023-04-06T15:12:29;11.90;67.70
20827;DHT22;10574;52.508;13.236;2023-04-06T15:14:58;12.00;71.50
20827;DHT22;10574;52.508;13.236;2023-04-06T15:17:27;11.90;68.70
20827;DHT22;10574;52.508;13.236;2023-04-06T15:19:55;12.10;71.00
20827;DHT22;10574;52.508;13.236;2023-04-06T15:22:22;12.00;68.80
20827;DHT22;10574;52.508;13.236;2023-04-06T15:24:50;11.80;70.70
20827;DHT22;10574;52.508;13.236;2023-04-06T15:27:18;11.60;69.50
20827;DHT22;10574;52.508;13.236;2023-04-06T15:29:46;11.70;70.20
20827;DHT22;10574;52.508;13.236;2023-04-06T15:32:13;11.50;68.10
20827;DHT22;10574;52.508;13.236;2023-04-06T15:34:41;11.10;68.40
20827;DHT22;10574;52.508;13.236;2023-04-06T15:37:09;11.10;69.30